createdAt,value
2023-05-06T00:00:11.027Z,101661.00
2023-05-06T00:02:43.014Z,101660.00
2023-05-06T00:05:10.241Z,101657.13
2023-05-06T00:07:37.317Z,101659.75
2023-05-06T00:10:04.912Z,101666.31
2023-05-06T00:12:31.743Z,101665.41
2023-05-06T00:14:58.742Z,101663.69
2023-05-06T00:17:25.713Z,101657.69
2023-05-06T00:19:52.580Z,101658.16
2023-05-06T00:22:19.650Z,101659.88
2023-05-06T00:24:46.552Z,101658.84
2023-05-06T00:27:13.648Z,101658.16
2023-05-06T00:29:40.683Z,101658.16
2023-05-06T00:32:07.682Z,101647.91
2023-05-06T00:34:34.801Z,101656.41
2023-05-06T00:37:01.757Z,101661.38
2023-05-06T00:39:31.152Z,101655.59
2023-05-06T00:42:02.410Z,101660.69
2023-05-06T00:44:30.146Z,101662.06
2023-05-06T00:46:59.292Z,101666.53
2023-05-06T00:49:26.630Z,101663.56
2023-05-06T00:51:54.960Z,101662.50
2023-05-06T00:54:25.012Z,101657.91
2023-05-06T00:56:52.081Z,101650.16
2023-05-06T00:59:19.477Z,101653.50
2023-05-06T01:01:47.252Z,101651.97
2023-05-06T01:04:14.300Z,101646.44
2023-05-06T01:07:08.305Z,101639.78
2023-05-06T01:09:47.025Z,101649.44
2023-05-06T01:12:34.087Z,101647.47
2023-05-06T01:15:33.644Z,101646.66
2023-05-06T01:18:04.467Z,101642.28
2023-05-06T01:20:33.247Z,101640.00
2023-05-06T01:23:02.813Z,101641.59
2023-05-06T01:25:32.296Z,101645.16
2023-05-06T01:27:59.197Z,101649.53
2023-05-06T01:30:36.038Z,101640.06
2023-05-06T01:33:11.136Z,101648.03
2023-05-06T01:35:56.276Z,101642.94
2023-05-06T01:38:53.035Z,101643.06
2023-05-06T01:41:21.445Z,101649.72
2023-05-06T01:43:49.577Z,101637.16
2023-05-06T01:46:21.047Z,101638.34
2023-05-06T01:48:55.702Z,101637.25
2023-05-06T01:51:24.138Z,101642.69
2023-05-06T01:53:51.602Z,101643.88
2023-05-06T01:56:18.680Z,101647.44
2023-05-06T01:58:46.214Z,101645.38
2023-05-06T02:01:13.641Z,101644.91
2023-05-06T02:03:41.236Z,101640.88
2023-05-06T02:06:08.666Z,101637.56
2023-05-06T02:08:40.272Z,101641.41
2023-05-06T02:11:09.255Z,101635.66
2023-05-06T02:13:36.182Z,101635.44
2023-05-06T02:16:04.014Z,101640.75
2023-05-06T02:18:32.504Z,101641.66
2023-05-06T02:20:59.960Z,101638.22
2023-05-06T02:23:27.018Z,101632.00
2023-05-06T02:25:54.172Z,101636.84
2023-05-06T02:28:21.115Z,101633.88
2023-05-06T02:30:49.187Z,101635.00
2023-05-06T02:33:16.234Z,101642.63
2023-05-06T02:35:44.272Z,101644.44
2023-05-06T02:38:11.196Z,101639.19
2023-05-06T02:40:38.282Z,101640.56
2023-05-06T02:43:05.237Z,101643.31
2023-05-06T02:45:34.293Z,101637.44
2023-05-06T02:48:01.577Z,101639.41
2023-05-06T02:50:28.448Z,101650.91
2023-05-06T02:52:55.319Z,101646.53
2023-05-06T02:55:23.086Z,101640.66
2023-05-06T02:57:50.480Z,101642.25
2023-05-06T03:00:18.023Z,101634.66
2023-05-06T03:02:45.262Z,101641.91
2023-05-06T03:05:12.387Z,101642.38
2023-05-06T03:07:39.994Z,101636.84
2023-05-06T03:10:09.090Z,101638.81
2023-05-06T03:12:38.524Z,101643.06
2023-05-06T03:15:06.502Z,101625.22
2023-05-06T03:17:33.549Z,101633.78
2023-05-06T03:20:03.811Z,101639.19
2023-05-06T03:22:31.799Z,101624.06
2023-05-06T03:24:58.899Z,101627.31
2023-05-06T03:27:27.426Z,101629.25
2023-05-06T03:29:59.202Z,101620.50
2023-05-06T03:32:26.224Z,101617.06
2023-05-06T03:34:53.166Z,101628.56
2023-05-06T03:37:21.952Z,101625.81
2023-05-06T03:39:53.240Z,101628.56
2023-05-06T03:42:23.593Z,101636.16
2023-05-06T03:44:50.889Z,101630.31
2023-05-06T03:47:17.932Z,101638.69
2023-05-06T03:49:45.547Z,101642.00
2023-05-06T03:52:13.397Z,101634.41
2023-05-06T03:54:40.361Z,101643.59
2023-05-06T03:57:08.297Z,101644.19
2023-05-06T03:59:36.051Z,101643.50
2023-05-06T04:02:04.490Z,101638.88
2023-05-06T04:04:35.709Z,101646.72
2023-05-06T04:07:03.889Z,101649.94
2023-05-06T04:09:33.002Z,101637.84
2023-05-06T04:12:03.500Z,101645.78
2023-05-06T04:14:32.147Z,101650.16
2023-05-06T04:16:59.966Z,101663.28
2023-05-06T04:19:27.431Z,101666.38
2023-05-06T04:21:54.410Z,101668.25
2023-05-06T04:24:21.517Z,101666.63
2023-05-06T04:26:48.458Z,101672.63
2023-05-06T04:29:16.345Z,101678.25
2023-05-06T04:31:57.228Z,101672.50
2023-05-06T04:34:27.932Z,101668.34
2023-05-06T04:36:58.785Z,101670.97
2023-05-06T04:39:32.292Z,101674.06
2023-05-06T04:41:59.370Z,101674.88
2023-05-06T04:44:34.546Z,101681.22
2023-05-06T04:47:03.713Z,101686.03
2023-05-06T04:49:31.043Z,101671.03
2023-05-06T04:51:58.065Z,101674.50
2023-05-06T04:54:25.588Z,101673.38
2023-05-06T04:56:52.530Z,101682.09
2023-05-06T04:59:20.817Z,101671.03
2023-05-06T05:01:48.084Z,101675.44
2023-05-06T05:04:16.183Z,101679.81
2023-05-06T05:06:43.192Z,101682.09
2023-05-06T05:09:10.750Z,101682.81
2023-05-06T05:11:40.700Z,101691.09
2023-05-06T05:14:08.222Z,101686.50
2023-05-06T05:16:35.678Z,101685.09
2023-05-06T05:19:04.347Z,101682.53
2023-05-06T05:21:33.624Z,101681.94
2023-05-06T05:24:01.142Z,101687.31
2023-05-06T05:26:28.666Z,101684.28
2023-05-06T05:28:58.105Z,101681.25
2023-05-06T05:31:25.072Z,101682.19
2023-05-06T05:33:53.949Z,101679.16
2023-05-06T05:36:23.423Z,101690.78
2023-05-06T05:38:53.610Z,101690.16
2023-05-06T05:41:23.058Z,101692.03
2023-05-06T05:43:50.079Z,101692.38
2023-05-06T05:46:17.109Z,101693.81
2023-05-06T05:48:46.560Z,101703.56
2023-05-06T05:51:14.013Z,101697.47
2023-05-06T05:53:41.839Z,101700.78
2023-05-06T05:56:10.898Z,101696.38
2023-05-06T05:58:38.703Z,101703.63
2023-05-06T06:01:06.325Z,101705.06
2023-05-06T06:03:33.695Z,101704.25
2023-05-06T06:06:01.307Z,101697.63
2023-05-06T06:08:29.893Z,101711.13
2023-05-06T06:10:58.439Z,101713.91
2023-05-06T06:13:32.236Z,101708.34
2023-05-06T06:16:01.109Z,101715.16
2023-05-06T06:18:28.135Z,101713.63
2023-05-06T06:20:54.994Z,101707.16
2023-05-06T06:23:22.421Z,101703.81
2023-05-06T06:25:49.645Z,101710.69
2023-05-06T06:28:16.519Z,101704.09
2023-05-06T06:30:45.211Z,101699.84
2023-05-06T06:33:12.224Z,101702.00
2023-05-06T06:35:40.310Z,101700.53
2023-05-06T06:38:07.272Z,101704.03
2023-05-06T06:40:34.221Z,101702.22
2023-05-06T06:43:01.410Z,101709.53
2023-05-06T06:45:53.587Z,101716.03
2023-05-06T06:48:20.794Z,101715.38
2023-05-06T06:50:47.770Z,101721.88
2023-05-06T06:53:14.679Z,101723.19
2023-05-06T06:55:45.657Z,101721.91
2023-05-06T06:58:12.763Z,101724.19
2023-05-06T07:00:39.655Z,101717.66
2023-05-06T07:03:06.950Z,101728.03
2023-05-06T07:05:33.986Z,101728.66
2023-05-06T07:08:01.131Z,101726.53
2023-05-06T07:10:28.099Z,101731.09
2023-05-06T07:12:55.031Z,101718.59
2023-05-06T07:15:22.141Z,101723.66
2023-05-06T07:17:49.080Z,101728.53
2023-05-06T07:20:16.326Z,101729.78
2023-05-06T07:22:43.853Z,101733.91
2023-05-06T07:25:10.964Z,101732.47
2023-05-06T07:27:38.131Z,101736.75
2023-05-06T07:30:05.703Z,101732.34
2023-05-06T07:32:32.966Z,101737.22
2023-05-06T07:35:00.026Z,101736.41
2023-05-06T07:37:27.012Z,101728.00
2023-05-06T07:39:54.634Z,101735.88
2023-05-06T07:42:22.012Z,101737.22
2023-05-06T07:44:48.966Z,101738.13
2023-05-06T07:47:31.779Z,101735.88
2023-05-06T07:50:00.759Z,101734.31
2023-05-06T07:52:27.988Z,101737.53
2023-05-06T07:54:55.070Z,101732.41
2023-05-06T07:57:22.088Z,101741.75
2023-05-06T07:59:50.766Z,101736.66
2023-05-06T08:02:17.900Z,101731.25
2023-05-06T08:04:45.710Z,101740.91
2023-05-06T08:07:12.874Z,101741.19
2023-05-06T08:09:39.793Z,101738.13
2023-05-06T08:12:07.516Z,101741.75
2023-05-06T08:14:34.356Z,101749.00
2023-05-06T08:17:01.509Z,101750.78
2023-05-06T08:19:28.660Z,101752.88
2023-05-06T08:21:55.880Z,101753.88
2023-05-06T08:24:22.925Z,101760.28
2023-05-06T08:26:49.897Z,101755.16
2023-05-06T08:29:16.798Z,101755.03
2023-05-06T08:31:44.076Z,101750.94
2023-05-06T08:34:10.922Z,101751.09
2023-05-06T08:36:37.965Z,101754.69
2023-05-06T08:39:06.137Z,101758.47
2023-05-06T08:41:34.560Z,101753.06
2023-05-06T08:44:03.543Z,101760.78
2023-05-06T08:46:31.688Z,101763.63
2023-05-06T08:48:59.920Z,101761.66
2023-05-06T08:51:29.559Z,101762.22
2023-05-06T08:54:04.147Z,101767.47
2023-05-06T08:56:33.877Z,101760.38
2023-05-06T08:59:01.401Z,101760.72
2023-05-06T09:01:29.174Z,101765.88
2023-05-06T09:03:58.162Z,101763.19
2023-05-06T09:06:25.527Z,101768.81
2023-05-06T09:08:53.108Z,101766.84
2023-05-06T09:11:25.841Z,101770.88
2023-05-06T09:14:17.412Z,101763.44
2023-05-06T09:16:46.915Z,101767.13
2023-05-06T09:19:14.941Z,101770.28
2023-05-06T09:21:44.113Z,101768.72
2023-05-06T09:24:13.835Z,101767.56
2023-05-06T09:26:43.234Z,101767.22
2023-05-06T09:29:11.073Z,101776.84
2023-05-06T09:31:42.893Z,101778.56
2023-05-06T09:34:10.752Z,101782.94
2023-05-06T09:36:38.081Z,101781.03
2023-05-06T09:39:05.871Z,101771.88
2023-05-06T09:41:33.342Z,101781.06
2023-05-06T09:44:00.967Z,101782.25
2023-05-06T09:46:28.222Z,101777.03
2023-05-06T09:48:57.298Z,101766.22
2023-05-06T09:51:24.360Z,101768.19
2023-05-06T09:53:52.622Z,101763.28
2023-05-06T09:56:21.461Z,101761.28
2023-05-06T09:58:49.218Z,101757.88
2023-05-06T10:01:25.148Z,101765.06
2023-05-06T10:04:02.812Z,101769.38
2023-05-06T10:06:32.757Z,101762.53
2023-05-06T10:09:01.204Z,101761.94
2023-05-06T10:11:31.473Z,101754.63
2023-05-06T10:14:01.256Z,101759.06
2023-05-06T10:16:29.325Z,101756.63
2023-05-06T10:18:57.636Z,101749.97
2023-05-06T10:21:27.811Z,101745.66
2023-05-06T10:24:04.382Z,101750.13
2023-05-06T10:26:32.311Z,101747.75
2023-05-06T10:29:02.909Z,101747.69
2023-05-06T10:31:31.788Z,101745.31
2023-05-06T10:34:03.101Z,101740.34
2023-05-06T10:36:33.760Z,101744.25
2023-05-06T10:39:03.379Z,101746.47
2023-05-06T10:41:32.039Z,101742.19
2023-05-06T10:44:00.241Z,101736.97
2023-05-06T10:46:31.155Z,101738.53
2023-05-06T10:49:11.482Z,101732.94
2023-05-06T10:51:48.036Z,101730.59
2023-05-06T10:54:18.123Z,101736.97
2023-05-06T10:56:48.271Z,101731.22
2023-05-06T10:59:16.646Z,101728.72
2023-05-06T11:01:45.110Z,101738.72
2023-05-06T11:04:16.501Z,101729.84
2023-05-06T11:06:46.671Z,101727.50
2023-05-06T11:09:26.936Z,101733.44
2023-05-06T11:12:03.700Z,101728.63
2023-05-06T11:14:38.097Z,101728.72
2023-05-06T11:17:07.075Z,101727.13
2023-05-06T11:19:35.770Z,101727.00
2023-05-06T11:22:04.831Z,101726.78
2023-05-06T11:24:38.570Z,101722.41
2023-05-06T11:27:05.975Z,101723.47
2023-05-06T11:29:33.065Z,101725.13
2023-05-06T11:32:00.324Z,101733.19
2023-05-06T11:34:29.876Z,101728.38
2023-05-06T11:37:02.468Z,101732.34
2023-05-06T11:39:38.768Z,101732.72
2023-05-06T11:42:07.979Z,101726.88
2023-05-06T11:44:37.229Z,101729.00
2023-05-06T11:47:09.557Z,101727.19
2023-05-06T11:49:38.784Z,101735.44
2023-05-06T11:52:06.110Z,101742.66
2023-05-06T11:54:39.532Z,101743.00
2023-05-06T11:57:06.531Z,101737.19
2023-05-06T11:59:35.409Z,101747.00
2023-05-06T12:02:07.751Z,101739.09
2023-05-06T12:04:41.749Z,101738.91
2023-05-06T12:07:11.202Z,101741.28
2023-05-06T12:09:47.316Z,101730.97
2023-05-06T12:12:20.057Z,101737.25
2023-05-06T12:14:47.757Z,101738.09
2023-05-06T12:17:15.648Z,101732.03
2023-05-06T12:19:42.740Z,101737.13
2023-05-06T12:22:15.142Z,101742.91
2023-05-06T12:24:42.180Z,101745.19
2023-05-06T12:27:09.284Z,101752.69
2023-05-06T12:29:36.334Z,101743.75
2023-05-06T12:32:10.887Z,101739.78
2023-05-06T12:34:40.475Z,101743.75
2023-05-06T12:37:08.816Z,101736.97
2023-05-06T12:39:37.390Z,101732.50
2023-05-06T12:42:04.901Z,101732.72
2023-05-06T12:44:33.819Z,101727.94
2023-05-06T12:47:22.779Z,101724.41
2023-05-06T12:50:01.154Z,101734.44
2023-05-06T12:52:30.253Z,101737.34
2023-05-06T12:54:57.780Z,101738.59
2023-05-06T12:57:24.658Z,101742.56
2023-05-06T12:59:52.584Z,101743.41
2023-05-06T13:02:19.495Z,101747.41
2023-05-06T13:04:47.101Z,101749.00
2023-05-06T13:07:14.311Z,101752.25
2023-05-06T13:09:41.526Z,101751.84
2023-05-06T13:12:08.789Z,101749.84
2023-05-06T13:14:37.821Z,101745.84
2023-05-06T13:17:07.506Z,101756.66
2023-05-06T13:19:35.014Z,101761.06
2023-05-06T13:22:02.473Z,101764.19
2023-05-06T13:24:30.071Z,101758.56
2023-05-06T13:26:57.636Z,101759.66
2023-05-06T13:29:24.877Z,101763.31
2023-05-06T13:31:52.453Z,101763.31
2023-05-06T13:34:19.340Z,101762.53
2023-05-06T13:36:47.835Z,101762.63
2023-05-06T13:39:16.257Z,101759.03
2023-05-06T13:41:46.137Z,101762.19
2023-05-06T13:44:14.062Z,101760.50
2023-05-06T13:46:41.506Z,101764.84
2023-05-06T13:49:09.087Z,101767.13
2023-05-06T13:51:36.139Z,101761.38
2023-05-06T13:54:03.949Z,101762.69
2023-05-06T13:56:31.255Z,101770.25
2023-05-06T13:58:58.442Z,101758.44
2023-05-06T14:01:25.707Z,101756.69
2023-05-06T14:03:52.713Z,101768.50
2023-05-06T14:06:20.002Z,101761.00
2023-05-06T14:08:47.357Z,101752.66
2023-05-06T14:11:14.315Z,101754.59
2023-05-06T14:13:41.304Z,101752.59
2023-05-06T14:16:08.375Z,101755.38
2023-05-06T14:18:35.561Z,101748.59
2023-05-06T14:21:03.600Z,101746.63
2023-05-06T14:23:30.545Z,101738.25
2023-05-06T14:25:57.625Z,101734.25
2023-05-06T14:28:24.564Z,101739.44
2023-05-06T14:30:51.502Z,101737.84
2023-05-06T14:33:18.628Z,101744.22
2023-05-06T14:35:46.331Z,101736.25
2023-05-06T14:38:13.352Z,101729.06
2023-05-06T14:40:40.592Z,101730.28
2023-05-06T14:43:07.783Z,101733.84
2023-05-06T14:45:34.998Z,101729.81
2023-05-06T14:48:02.449Z,101730.59
2023-05-06T14:50:30.835Z,101731.00
2023-05-06T14:52:57.964Z,101729.81
2023-05-06T14:55:25.948Z,101728.63
2023-05-06T14:57:52.903Z,101729.84
2023-05-06T15:00:20.641Z,101730.66
2023-05-06T15:02:47.737Z,101728.28
2023-05-06T15:05:15.154Z,101731.44
2023-05-06T15:07:42.162Z,101729.06
2023-05-06T15:10:09.340Z,101730.97
2023-05-06T15:12:37.395Z,101731.78
2023-05-06T15:15:05.190Z,101734.25
2023-05-06T15:17:32.749Z,101740.59
2023-05-06T15:20:00.175Z,101739.75
2023-05-06T15:22:27.172Z,101739.34
2023-05-06T15:24:54.054Z,101747.31
2023-05-06T15:27:21.167Z,101742.94
2023-05-06T15:29:48.469Z,101746.97
2023-05-06T15:32:15.384Z,101747.72
2023-05-06T15:34:42.925Z,101742.47
2023-05-06T15:37:10.572Z,101751.19
2023-05-06T15:39:40.554Z,101745.78
2023-05-06T15:42:07.684Z,101755.72
2023-05-06T15:44:34.583Z,101757.72
2023-05-06T15:47:01.831Z,101755.00
2023-05-06T15:52:00.841Z,101755.22
2023-05-06T15:54:28.810Z,101752.91
2023-05-06T15:56:56.567Z,101757.78
2023-05-06T15:59:23.743Z,101761.44
2023-05-06T16:02:25.562Z,101747.44
2023-05-06T16:04:38.126Z,101752.25
2023-05-06T16:07:05.206Z,101753.41
2023-05-06T16:09:32.146Z,101747.72
2023-05-06T16:11:59.360Z,101753.63
2023-05-06T16:14:26.638Z,101749.66
2023-05-06T16:16:54.873Z,101749.31
2023-05-06T16:19:22.064Z,101748.13
2023-05-06T16:21:49.048Z,101745.00
2023-05-06T16:24:16.175Z,101739.03
2023-05-06T16:26:43.402Z,101742.59
2023-05-06T16:29:10.735Z,101735.44
2023-05-06T16:31:38.204Z,101743.47
2023-05-06T16:34:05.362Z,101739.84
2023-05-06T16:36:32.380Z,101744.66
2023-05-06T16:38:59.708Z,101739.44
2023-05-06T16:41:27.055Z,101738.22
2023-05-06T16:43:54.168Z,101730.66
2023-05-06T16:46:22.729Z,101732.28
2023-05-06T16:48:52.237Z,101733.88
2023-05-06T16:51:19.594Z,101720.25
2023-05-06T16:53:46.782Z,101728.66
2023-05-06T16:56:13.776Z,101726.28
2023-05-06T16:58:40.787Z,101727.47
2023-05-06T17:01:08.219Z,101724.25
2023-05-06T17:03:37.968Z,101727.06
2023-05-06T17:06:05.354Z,101723.88
2023-05-06T17:08:36.399Z,101727.44
2023-05-06T17:11:06.989Z,101723.34
2023-05-06T17:13:35.003Z,101719.81
2023-05-06T17:16:02.065Z,101719.47
2023-05-06T17:18:29.025Z,101719.81
2023-05-06T17:20:57.552Z,101723.75
2023-05-06T17:23:25.322Z,101726.03
2023-05-06T17:25:52.284Z,101720.84
2023-05-06T17:28:19.278Z,101723.28
2023-05-06T17:30:47.107Z,101722.88
2023-05-06T17:33:14.162Z,101721.63
2023-05-06T17:35:41.042Z,101719.13
2023-05-06T17:38:08.350Z,101714.63
2023-05-06T17:40:35.398Z,101724.91
2023-05-06T17:43:02.289Z,101722.91
2023-05-06T17:45:29.719Z,101722.53
2023-05-06T17:47:57.025Z,101718.88
2023-05-06T17:50:24.015Z,101718.00
2023-05-06T17:52:52.979Z,101721.47
2023-05-06T17:55:21.866Z,101717.47
2023-05-06T17:57:49.476Z,101718.59
2023-05-06T18:00:17.190Z,101724.03
2023-05-06T18:02:44.928Z,101721.63
2023-05-06T18:05:13.343Z,101723.19
2023-05-06T18:07:41.179Z,101717.50
2023-05-06T18:10:08.811Z,101724.97
2023-05-06T18:12:35.761Z,101720.91
2023-05-06T18:15:03.309Z,101730.00
2023-05-06T18:17:30.799Z,101720.34
2023-05-06T18:19:57.998Z,101728.19
2023-05-06T18:22:25.381Z,101724.16
2023-05-06T18:25:07.240Z,101721.72
2023-05-06T18:27:34.385Z,101723.94
2023-05-06T18:30:01.367Z,101725.47
2023-05-06T18:32:28.312Z,101720.91
2023-05-06T18:34:55.453Z,101721.91
2023-05-06T18:37:22.333Z,101727.31
2023-05-06T18:39:49.234Z,101729.63
2023-05-06T18:42:16.163Z,101730.28
2023-05-06T18:44:43.785Z,101724.19
2023-05-06T18:47:10.905Z,101726.44
2023-05-06T18:49:37.848Z,101734.72
2023-05-06T18:52:05.441Z,101730.63
2023-05-06T18:54:32.434Z,101734.47
2023-05-06T18:57:01.161Z,101725.97
2023-05-06T18:59:28.456Z,101730.97
2023-05-06T19:01:55.445Z,101730.84
2023-05-06T19:04:22.429Z,101735.88
2023-05-06T19:06:51.667Z,101732.91
2023-05-06T19:09:18.728Z,101728.38
2023-05-06T19:11:46.048Z,101719.13
2023-05-06T19:14:13.521Z,101727.31
2023-05-06T19:16:40.776Z,101722.00
2023-05-06T19:19:07.905Z,101725.44
2023-05-06T19:21:35.415Z,101726.91
2023-05-06T19:24:02.418Z,101731.16
2023-05-06T19:26:29.647Z,101725.09
2023-05-06T19:28:57.103Z,101725.38
2023-05-06T19:31:24.371Z,101736.41
2023-05-06T19:33:51.489Z,101737.53
2023-05-06T19:36:18.431Z,101734.22
2023-05-06T19:38:45.404Z,101732.53
2023-05-06T19:41:13.251Z,101730.50
2023-05-06T19:43:42.230Z,101735.16
2023-05-06T19:46:10.056Z,101734.28
2023-05-06T19:48:39.024Z,101732.31
2023-05-06T19:51:07.246Z,101725.50
2023-05-06T19:53:34.645Z,101722.59
2023-05-06T19:56:12.099Z,101727.31
2023-05-06T19:58:39.658Z,101727.78
2023-05-06T20:01:06.682Z,101721.94
2023-05-06T20:03:33.765Z,101725.97
2023-05-06T20:06:01.205Z,101729.53
2023-05-06T20:08:28.113Z,101730.34
2023-05-06T20:10:55.333Z,101722.72
2023-05-06T20:13:22.515Z,101729.91
2023-05-06T20:15:49.986Z,101727.56
2023-05-06T20:18:17.051Z,101726.75
2023-05-06T20:20:44.021Z,101731.94
2023-05-06T20:23:10.887Z,101728.38
2023-05-06T20:25:37.816Z,101725.97
2023-05-06T20:28:06.534Z,101730.25
2023-05-06T20:30:34.263Z,101731.78
2023-05-06T20:33:01.794Z,101729.38
2023-05-06T20:35:29.107Z,101734.13
2023-05-06T20:37:56.935Z,101723.03
2023-05-06T20:40:24.639Z,101733.41
2023-05-06T20:42:52.195Z,101739.75
2023-05-06T20:45:20.083Z,101735.03
2023-05-06T20:47:47.457Z,101735.03
2023-05-06T20:50:17.414Z,101733.69
2023-05-06T20:52:46.263Z,101739.94
2023-05-06T20:55:14.965Z,101736.69
2023-05-06T20:57:43.483Z,101734.66
2023-05-06T21:00:11.553Z,101739.34
2023-05-06T21:02:41.430Z,101740.94
2023-05-06T21:05:09.609Z,101737.00
2023-05-06T21:07:36.768Z,101737.72
2023-05-06T21:10:05.979Z,101742.16
2023-05-06T21:12:33.570Z,101746.47
2023-05-06T21:15:01.196Z,101737.00
2023-05-06T21:17:29.207Z,101739.78
2023-05-06T21:19:56.603Z,101745.69
2023-05-06T21:22:24.475Z,101739.34
2023-05-06T21:24:52.147Z,101742.13
2023-05-06T21:27:19.566Z,101748.53
2023-05-06T21:29:46.876Z,101737.88
2023-05-06T21:32:13.923Z,101745.09
2023-05-06T21:34:41.091Z,101744.22
2023-05-06T21:37:08.175Z,101742.13
2023-05-06T21:39:35.672Z,101741.66
2023-05-06T21:42:02.678Z,101739.34
2023-05-06T21:44:29.671Z,101745.69
2023-05-06T21:46:56.797Z,101752.91
2023-05-06T21:49:24.124Z,101750.13
2023-05-06T21:51:51.316Z,101759.72
2023-05-06T21:54:18.264Z,101772.03
2023-05-06T21:56:45.750Z,101770.47
2023-05-06T21:59:13.735Z,101771.97
2023-05-06T22:01:41.361Z,101773.50
2023-05-06T22:04:13.124Z,101770.72
2023-05-06T22:06:40.637Z,101766.78
2023-05-06T22:09:09.843Z,101771.09
2023-05-06T22:11:38.578Z,101766.41
2023-05-06T22:14:06.965Z,101776.44
2023-05-06T22:16:35.804Z,101783.34
2023-05-06T22:19:04.956Z,101765.00
2023-05-06T22:21:33.696Z,101770.47
2023-05-06T22:24:01.943Z,101774.47
2023-05-06T22:26:29.735Z,101771.19
2023-05-06T22:28:57.171Z,101767.81
2023-05-06T22:31:24.984Z,101761.72
2023-05-06T22:33:58.022Z,101769.25
2023-05-06T22:36:29.660Z,101764.13
2023-05-06T22:38:56.567Z,101766.28
2023-05-06T22:41:23.396Z,101758.34
2023-05-06T22:43:50.276Z,101755.09
2023-05-06T22:46:17.381Z,101753.50
2023-05-06T22:48:47.104Z,101752.72
2023-05-06T22:51:16.057Z,101748.31
2023-05-06T22:53:43.239Z,101751.00
2023-05-06T22:56:10.409Z,101747.34
2023-05-06T22:58:37.574Z,101745.81
2023-05-06T23:01:04.692Z,101745.44
2023-05-06T23:03:31.650Z,101744.66
2023-05-06T23:05:58.958Z,101748.13
2023-05-06T23:08:26.043Z,101743.31
2023-05-06T23:10:52.987Z,101745.31
2023-05-06T23:13:20.045Z,101744.94
2023-05-06T23:15:47.115Z,101748.84
2023-05-06T23:18:14.185Z,101745.66
2023-05-06T23:20:41.355Z,101753.88
2023-05-06T23:23:10.769Z,101741.53
2023-05-06T23:25:37.932Z,101735.66
2023-05-06T23:28:05.088Z,101741.91
2023-05-06T23:30:31.985Z,101736.72
2023-05-06T23:32:58.878Z,101742.16
2023-05-06T23:35:26.765Z,101738.25
2023-05-06T23:37:53.742Z,101732.25
2023-05-06T23:40:20.724Z,101739.75
2023-05-06T23:42:47.581Z,101734.66
2023-05-06T23:45:15.034Z,101735.03
2023-05-06T23:47:42.238Z,101736.19
2023-05-06T23:50:09.804Z,101732.59
2023-05-06T23:52:38.274Z,101730.63
2023-05-06T23:55:05.957Z,101735.75
2023-05-06T23:57:32.836Z,101734.22
2023-05-06T23:59:59.774Z,101732.59
